Time;durP1;ratioP1;P1;durP2;ratioP2;P2;SDS_P1;SDS_P2;PMS_P1;PMS_P2;Temp;Humidity;BMP_temperature;BMP_pressure;BME280_temperature;BME280_humidity;BME280_pressure;Samples;Min_cycle;Max_cycle;Signal;HPM_P1;HPM_P2
2022/03/21 00:02:13;;;;;;;13.97;12.53;;;10.40;29.00;;;;;;20785;6822;117914;-70
2022/03/21 00:04:39;;;;;;;14.47;13.20;;;10.10;29.40;;;;;;20575;6822;336431;-70
2022/03/21 00:07:05;;;;;;;13.97;12.70;;;10.30;29.60;;;;;;20580;6822;277644;-70
2022/03/21 00:09:30;;;;;;;14.07;12.77;;;10.50;29.40;;;;;;20773;6822;118467;-70
2022/03/21 00:11:55;;;;;;;14.57;13.27;;;10.40;29.40;;;;;;20577;6822;278246;-70
2022/03/21 00:14:21;;;;;;;14.13;12.93;;;10.40;29.40;;;;;;20572;6822;311254;-71
2022/03/21 00:16:48;;;;;;;14.50;13.20;;;10.80;28.80;;;;;;20576;6822;310798;-70
2022/03/21 00:19:13;;;;;;;14.85;13.65;;;10.80;28.80;;;;;;20574;6822;340848;-70
2022/03/21 00:21:38;;;;;;;14.67;13.40;;;10.90;28.60;;;;;;20559;6822;303272;-70
2022/03/21 00:24:04;;;;;;;15.98;14.38;;;11.00;28.40;;;;;;20580;6822;279390;-70
2022/03/21 00:26:30;;;;;;;15.25;13.85;;;11.00;28.40;;;;;;20575;6822;278721;-70
2022/03/21 00:28:56;;;;;;;14.77;13.53;;;11.00;28.40;;;;;;20582;6820;311419;-70
2022/03/21 00:31:22;;;;;;;14.67;13.37;;;11.10;28.20;;;;;;20777;6821;117902;-70
2022/03/21 00:33:47;;;;;;;14.10;12.90;;;10.70;28.40;;;;;;20588;6821;297662;-70
2022/03/21 00:36:13;;;;;;;13.30;12.20;;;10.60;28.70;;;;;;20799;6821;117290;-70
2022/03/21 00:38:38;;;;;;;14.35;13.05;;;10.40;29.10;;;;;;20584;6821;306555;-70
2022/03/21 00:41:04;;;;;;;13.07;11.90;;;10.40;29.30;;;;;;20780;6822;117276;-70
2022/03/21 00:43:30;;;;;;;13.43;12.23;;;10.20;29.40;;;;;;20764;6822;118370;-70
2022/03/21 00:45:55;;;;;;;13.43;12.23;;;9.90;30.50;;;;;;20576;6822;333568;-70
2022/03/21 00:48:21;;;;;;;14.20;13.00;;;10.10;29.50;;;;;;20544;6822;304037;-70
2022/03/21 00:50:46;;;;;;;12.97;11.87;;;10.40;29.20;;;;;;20775;6822;118063;-70
2022/03/21 00:53:13;;;;;;;13.27;12.13;;;10.30;29.10;;;;;;20567;6822;307540;-70
2022/03/21 00:55:39;;;;;;;12.53;11.23;;;10.30;29.10;;;;;;20746;6822;120446;-70
2022/03/21 00:58:05;;;;;;;13.13;12.10;;;10.20;29.30;;;;;;20577;6822;307109;-70
2022/03/21 01:00:30;;;;;;;13.55;12.48;;;10.20;29.20;;;;;;20582;6822;340874;-70
2022/03/21 01:02:56;;;;;;;12.40;11.30;;;10.50;29.00;;;;;;20795;6822;117907;-70
2022/03/21 01:05:22;;;;;;;13.63;12.43;;;10.30;29.10;;;;;;20558;6822;306723;-71
2022/03/21 01:07:47;;;;;;;13.62;12.52;;;10.40;28.90;;;;;;20579;6822;282073;-70
2022/03/21 01:10:14;;;;;;;12.87;11.67;;;10.60;28.70;;;;;;20794;6822;120849;-71
2022/03/21 01:12:38;;;;;;;12.43;11.27;;;10.40;28.90;;;;;;20777;6822;117855;-70
2022/03/21 01:15:04;;;;;;;12.33;11.20;;;10.00;29.30;;;;;;20788;6822;118936;-70
2022/03/21 01:17:29;;;;;;;13.45;12.35;;;9.70;30.60;;;;;;20560;6822;306513;-70
2022/03/21 01:19:55;;;;;;;12.93;11.73;;;9.80;31.20;;;;;;20795;6822;117351;-71
2022/03/21 01:22:20;;;;;;;13.32;12.15;;;9.70;31.20;;;;;;20588;6822;279340;-70
2022/03/21 01:24:46;;;;;;;13.23;12.13;;;9.80;30.80;;;;;;20592;6822;306782;-70
2022/03/21 01:27:11;;;;;;;13.53;12.50;;;10.10;29.40;;;;;;20590;6822;306708;-70
2022/03/21 01:29:37;;;;;;;12.37;11.38;;;10.30;29.00;;;;;;20563;6822;294611;-70
2022/03/21 01:32:03;;;;;;;11.60;10.60;;;10.40;28.60;;;;;;20793;6822;117794;-70
2022/03/21 01:34:28;;;;;;;12.40;11.48;;;10.20;29.00;;;;;;20573;6822;335110;-70
2022/03/21 01:36:54;;;;;;;12.30;11.20;;;10.20;29.20;;;;;;20795;6822;123366;-70
2022/03/21 01:39:21;;;;;;;11.73;10.82;;;10.10;29.40;;;;;;20773;6822;117785;-70
2022/03/21 01:41:46;;;;;;;12.52;11.52;;;9.70;30.40;;;;;;20577;6821;336883;-70
2022/03/21 01:44:12;;;;;;;12.67;11.57;;;9.80;31.30;;;;;;20793;6821;119128;-70
2022/03/21 01:46:37;;;;;;;12.70;11.60;;;9.70;31.30;;;;;;20578;6821;336019;-70
2022/03/21 01:49:03;;;;;;;12.30;11.10;;;9.80;32.30;;;;;;20792;6821;117682;-70
2022/03/21 01:51:29;;;;;;;12.90;11.90;;;9.70;32.40;;;;;;20553;6822;307522;-70
2022/03/21 01:56:40;;;;;;;12.75;11.75;;;10.00;29.90;;;;;;20588;6822;308035;-71
2022/03/21 01:59:05;;;;;;;12.13;11.03;;;10.20;30.30;;;;;;20794;6822;117235;-70
2022/03/21 02:01:31;;;;;;;11.47;10.53;;;10.00;30.70;;;;;;20772;6822;123735;-70
2022/03/21 02:03:57;;;;;;;13.27;12.17;;;9.70;33.20;;;;;;20595;6822;278056;-70
2022/03/21 02:06:23;;;;;;;12.63;11.50;;;9.70;33.20;;;;;;20794;6822;117220;-70
2022/03/21 02:08:48;;;;;;;11.95;10.93;;;9.50;32.70;;;;;;20791;6822;117600;-70
2022/03/21 02:11:15;;;;;;;12.23;11.13;;;9.30;33.00;;;;;;20784;6822;117186;-70
2022/03/21 02:13:40;;;;;;;12.17;10.83;;;8.80;33.80;;;;;;20766;6822;118904;-70
2022/03/21 02:16:06;;;;;;;12.87;11.67;;;8.70;33.70;;;;;;20780;6822;117143;-70
2022/03/21 02:18:31;;;;;;;13.23;12.07;;;8.60;33.80;;;;;;20789;6822;117092;-70
2022/03/21 02:20:57;;;;;;;13.13;12.02;;;8.50;33.90;;;;;;20572;6822;307116;-70
2022/03/21 02:23:22;;;;;;;12.02;11.02;;;8.70;33.10;;;;;;20760;6822;117798;-71
2022/03/21 02:25:49;;;;;;;14.07;12.68;;;9.00;32.80;;;;;;20548;6822;309440;-70
2022/03/21 02:28:14;;;;;;;13.77;12.68;;;9.00;32.80;;;;;;20568;6822;314606;-71
2022/03/21 02:30:47;;;;;;;12.98;11.95;;;9.30;31.90;;;;;;20553;6822;336583;-70
2022/03/21 02:33:12;;;;;;;11.87;10.80;;;9.60;33.00;;;;;;20785;6822;117691;-70
2022/03/21 02:35:37;;;;;;;12.80;11.73;;;9.40;33.00;;;;;;20564;6822;290891;-70
2022/03/21 02:38:03;;;;;;;13.52;12.43;;;9.50;33.30;;;;;;20580;6822;335915;-70
2022/03/21 02:40:28;;;;;;;12.03;11.03;;;9.70;32.00;;;;;;20791;6822;117614;-70
2022/03/21 02:42:55;;;;;;;12.87;11.77;;;9.50;31.90;;;;;;20578;6822;307175;-71
2022/03/21 02:45:20;;;;;;;13.73;12.63;;;9.50;31.80;;;;;;20553;6822;312035;-70
2022/03/21 02:47:46;;;;;;;14.07;12.88;;;9.70;31.40;;;;;;20575;6822;278655;-70
2022/03/21 02:50:11;;;;;;;12.20;11.00;;;9.90;31.40;;;;;;20793;6822;117100;-69
2022/03/21 02:52:37;;;;;;;12.33;11.23;;;9.60;31.70;;;;;;20793;6820;117144;-71
2022/03/21 02:55:03;;;;;;;13.45;12.35;;;9.20;32.40;;;;;;20581;6821;277375;-70
2022/03/21 02:57:31;;;;;;;13.85;12.65;;;9.50;31.80;;;;;;20548;6821;312497;-70
2022/03/21 02:59:55;;;;;;;13.07;11.87;;;9.40;31.70;;;;;;20772;6821;117353;-70
2022/03/21 03:02:21;;;;;;;14.53;13.23;;;9.20;32.30;;;;;;20571;6822;306651;-70
2022/03/21 03:04:46;;;;;;;13.33;12.10;;;9.20;32.30;;;;;;20779;6822;117200;-71
2022/03/21 03:07:12;;;;;;;13.67;12.40;;;9.00;32.50;;;;;;20783;6822;117236;-71
2022/03/21 03:09:38;;;;;;;14.70;13.40;;;8.80;33.10;;;;;;20555;6822;278372;-71
2022/03/21 03:12:03;;;;;;;13.68;12.37;;;8.80;33.40;;;;;;20766;6822;117380;-71
2022/03/21 03:14:29;;;;;;;13.67;12.27;;;8.80;33.50;;;;;;20773;6822;118292;-71
2022/03/21 03:16:56;;;;;;;15.57;14.18;;;8.60;34.00;;;;;;20565;6822;338061;-71
2022/03/21 03:19:20;;;;;;;14.30;12.83;;;8.70;34.10;;;;;;20750;6822;128352;-70
2022/03/21 03:21:46;;;;;;;14.80;13.50;;;8.80;34.20;;;;;;20571;6822;307380;-70
2022/03/21 03:24:12;;;;;;;14.17;12.87;;;8.90;34.30;;;;;;20783;6822;117216;-70
2022/03/21 03:26:37;;;;;;;15.37;13.80;;;8.80;34.60;;;;;;20790;6822;118437;-70
2022/03/21 03:29:03;;;;;;;15.03;13.73;;;8.60;34.80;;;;;;20570;6822;277738;-70
2022/03/21 03:31:30;;;;;;;14.30;13.10;;;8.70;34.70;;;;;;20536;6822;308006;-70
2022/03/21 03:33:55;;;;;;;13.97;12.30;;;9.00;33.90;;;;;;20784;6822;118169;-73
2022/03/21 03:36:21;;;;;;;13.60;12.23;;;8.90;34.20;;;;;;20780;6822;117257;-70
2022/03/21 03:38:47;;;;;;;13.27;12.17;;;8.70;34.50;;;;;;20792;6822;119303;-70
2022/03/21 03:41:13;;;;;;;13.93;12.73;;;8.40;34.50;;;;;;20588;6822;286075;-69
2022/03/21 03:43:39;;;;;;;14.27;13.05;;;8.50;34.40;;;;;;20554;6822;310980;-69
2022/03/21 03:46:04;;;;;;;13.07;11.97;;;8.90;34.40;;;;;;20792;6822;117091;-70
2022/03/21 03:48:31;;;;;;;14.57;13.32;;;8.90;35.00;;;;;;20574;6822;337030;-69
2022/03/21 03:50:56;;;;;;;14.33;12.93;;;8.80;34.90;;;;;;20783;6822;118719;-70
2022/03/21 03:53:22;;;;;;;13.57;12.23;;;8.80;34.80;;;;;;20772;6822;118361;-70
2022/03/21 03:55:47;;;;;;;14.50;13.27;;;8.50;34.90;;;;;;20583;6822;312096;-70
2022/03/21 03:58:13;;;;;;;12.70;11.60;;;8.50;34.20;;;;;;20793;6822;117863;-70
2022/03/21 04:00:39;;;;;;;14.87;13.47;;;8.60;34.10;;;;;;20584;6822;307525;-70
2022/03/21 04:05:50;;;;;;;15.95;14.45;;;8.50;34.30;;;;;;20578;6821;277613;-70
2022/03/21 04:08:17;;;;;;;14.33;13.10;;;8.60;35.30;;;;;;20796;6821;117013;-70
2022/03/21 04:10:42;;;;;;;16.08;14.77;;;8.50;34.90;;;;;;20580;6821;282314;-70
2022/03/21 04:13:08;;;;;;;16.50;15.00;;;8.60;34.60;;;;;;20577;6821;321213;-70
2022/03/21 04:15:33;;;;;;;15.13;13.80;;;8.80;34.30;;;;;;20778;6822;117338;-70
2022/03/21 04:17:59;;;;;;;16.70;15.30;;;8.60;34.50;;;;;;20580;6822;306666;-70
2022/03/21 04:20:24;;;;;;;14.80;13.50;;;8.70;35.20;;;;;;20783;6822;117245;-70
2022/03/21 04:22:50;;;;;;;15.37;13.97;;;8.40;35.10;;;;;;20798;6822;123019;-69
2022/03/21 04:25:15;;;;;;;15.17;13.60;;;8.20;35.50;;;;;;20800;6822;117571;-70
2022/03/21 04:27:41;;;;;;;14.67;13.27;;;7.90;35.90;;;;;;20780;6822;118338;-70
2022/03/21 04:30:07;;;;;;;17.60;16.05;;;7.60;36.10;;;;;;20585;6822;307053;-70
2022/03/21 04:32:32;;;;;;;18.02;16.42;;;7.80;36.40;;;;;;20580;6822;277634;-70
2022/03/21 04:34:58;;;;;;;17.50;15.90;;;8.10;35.70;;;;;;20577;6822;336502;-69
2022/03/21 04:37:23;;;;;;;16.87;15.37;;;8.40;35.70;;;;;;20560;6822;311540;-70
2022/03/21 04:39:49;;;;;;;16.20;14.60;;;8.70;36.20;;;;;;20792;6822;117502;-69
2022/03/21 04:42:15;;;;;;;16.20;14.70;;;8.50;36.20;;;;;;20792;6822;117661;-70
2022/03/21 04:44:41;;;;;;;16.73;15.33;;;8.20;37.60;;;;;;20576;6822;310216;-69
2022/03/21 04:47:06;;;;;;;16.80;15.40;;;8.20;37.10;;;;;;20574;6822;307160;-70
2022/03/21 04:49:32;;;;;;;18.35;16.75;;;8.50;36.80;;;;;;20560;6822;305953;-70
2022/03/21 04:51:57;;;;;;;17.87;16.27;;;8.70;36.10;;;;;;20573;6822;281183;-70
2022/03/21 04:54:23;;;;;;;18.60;17.00;;;8.80;36.00;;;;;;20585;6822;278595;-70
2022/03/21 04:56:49;;;;;;;17.47;15.77;;;8.90;35.10;;;;;;20792;6822;117203;-71
2022/03/21 04:59:14;;;;;;;18.30;16.70;;;8.60;35.20;;;;;;20583;6822;307524;-70
2022/03/21 05:01:40;;;;;;;16.83;15.17;;;8.50;35.30;;;;;;20758;6822;117466;-72
2022/03/21 05:04:07;;;;;;;17.95;16.35;;;8.30;35.50;;;;;;20589;6822;306854;-71
2022/03/21 05:06:31;;;;;;;16.47;14.93;;;8.30;35.80;;;;;;20794;6822;117596;-71
2022/03/21 05:08:59;;;;;;;18.25;16.73;;;8.00;35.70;;;;;;20597;6822;278032;-69
2022/03/21 05:11:22;;;;;;;17.97;16.37;;;8.00;35.90;;;;;;20560;6822;336990;-69
2022/03/21 05:13:48;;;;;;;15.53;14.23;;;8.20;35.70;;;;;;20796;6822;117344;-69
2022/03/21 05:16:14;;;;;;;15.33;13.90;;;8.00;36.00;;;;;;20794;6820;117501;-69
2022/03/21 05:18:39;;;;;;;15.80;14.17;;;7.70;36.60;;;;;;20793;6821;117107;-69
2022/03/21 05:21:05;;;;;;;15.85;14.55;;;7.50;37.20;;;;;;20584;6821;306737;-69
2022/03/21 05:31:50;;;;;;;14.53;13.07;;;6.80;37.90;;;;;;20767;6822;117350;-67
2022/03/21 05:37:01;;;;;;;14.07;12.87;;;6.70;38.10;;;;;;20787;6822;123248;-67
2022/03/21 05:39:28;;;;;;;17.23;15.73;;;6.80;37.80;;;;;;20564;6822;307516;-69
2022/03/21 05:41:53;;;;;;;16.77;15.37;;;6.80;37.80;;;;;;20576;6822;281704;-68
2022/03/21 05:44:20;;;;;;;16.70;15.30;;;7.60;36.30;;;;;;20587;6822;278230;-69
2022/03/21 05:46:45;;;;;;;19.15;17.62;;;7.60;36.30;;;;;;20576;6822;317042;-69
2022/03/21 05:49:11;;;;;;;15.47;13.90;;;7.80;36.40;;;;;;20794;6822;120134;-69
2022/03/21 05:51:36;;;;;;;17.40;15.87;;;7.70;36.40;;;;;;20559;6822;282651;-69
2022/03/21 05:54:03;;;;;;;17.10;15.60;;;8.00;35.90;;;;;;20575;6822;307541;-68
2022/03/21 05:56:28;;;;;;;16.17;14.57;;;8.00;35.90;;;;;;20789;6822;117379;-65
2022/03/21 05:58:55;;;;;;;16.73;15.33;;;7.90;36.00;;;;;;20576;6822;306234;-66
2022/03/21 06:01:23;;;;;;;17.57;15.97;;;7.90;36.00;;;;;;20769;6822;118237;-67
2022/03/21 06:03:49;;;;;;;15.30;13.90;;;7.80;36.30;;;;;;20794;6822;118150;-67
2022/03/21 06:06:15;;;;;;;14.47;13.17;;;7.60;36.90;;;;;;20751;6822;117405;-67
2022/03/21 06:08:40;;;;;;;19.08;17.48;;;7.40;37.20;;;;;;20590;6822;284907;-68
2022/03/21 06:11:08;;;;;;;17.75;16.33;;;7.60;37.20;;;;;;20591;6822;336796;-66
2022/03/21 06:13:34;;;;;;;15.60;14.30;;;8.10;37.10;;;;;;20773;6822;123068;-66
2022/03/21 06:16:01;;;;;;;17.65;16.05;;;8.10;36.80;;;;;;20579;6822;277972;-67
2022/03/21 06:18:26;;;;;;;18.90;17.30;;;8.60;36.30;;;;;;20572;6822;336588;-66
2022/03/21 06:20:51;;;;;;;20.00;18.23;;;8.60;35.70;;;;;;20787;6822;118090;-67
2022/03/21 06:23:17;;;;;;;16.33;14.63;;;8.60;35.80;;;;;;20798;6822;117677;-67
2022/03/21 06:25:42;;;;;;;16.42;15.02;;;8.40;36.30;;;;;;20560;6820;337975;-69
2022/03/21 06:28:08;;;;;;;16.23;14.83;;;8.60;36.00;;;;;;20586;6821;306701;-70
2022/03/21 06:30:34;;;;;;;15.30;13.97;;;8.90;35.00;;;;;;20579;6821;306591;-70
2022/03/21 06:32:59;;;;;;;14.47;13.07;;;9.30;34.10;;;;;;20790;6821;117189;-68
2022/03/21 06:35:24;;;;;;;15.77;14.33;;;9.30;34.50;;;;;;20558;6821;307735;-68
2022/03/21 06:37:51;;;;;;;15.20;13.73;;;9.40;34.00;;;;;;20791;6822;117472;-73
2022/03/21 06:40:17;;;;;;;15.80;14.45;;;9.60;33.50;;;;;;20585;6822;337792;-68
2022/03/21 06:42:43;;;;;;;13.77;12.57;;;9.60;33.50;;;;;;20796;6822;118324;-69
2022/03/21 06:45:09;;;;;;;14.07;12.73;;;9.70;33.80;;;;;;20744;6822;117218;-70
2022/03/21 06:47:34;;;;;;;14.98;13.57;;;9.60;34.20;;;;;;20535;6822;334833;-70
2022/03/21 06:50:01;;;;;;;14.87;13.48;;;9.90;33.50;;;;;;20784;6822;117793;-69
2022/03/21 06:52:26;;;;;;;14.07;12.83;;;9.90;33.50;;;;;;20750;6822;117073;-68
2022/03/21 06:54:52;;;;;;;15.00;13.70;;;9.80;34.20;;;;;;20782;6822;117135;-70
2022/03/21 06:57:17;;;;;;;15.80;14.50;;;9.80;34.90;;;;;;20577;6822;309865;-70
2022/03/21 06:59:47;;;;;;;16.48;15.07;;;10.00;34.80;;;;;;20535;6822;336666;-70
2022/03/21 07:02:11;;;;;;;14.77;13.20;;;10.40;34.40;;;;;;20796;6822;117283;-70
2022/03/21 07:04:37;;;;;;;16.05;14.52;;;10.50;34.20;;;;;;20573;6822;307072;-72
2022/03/21 07:07:03;;;;;;;15.85;14.55;;;10.70;33.40;;;;;;20581;6822;282610;-72
2022/03/21 07:09:28;;;;;;;15.55;14.25;;;11.00;32.50;;;;;;20556;6822;342465;-72
2022/03/21 07:11:54;;;;;;;16.23;14.93;;;11.30;33.00;;;;;;20578;6822;306932;-68
2022/03/21 07:14:19;;;;;;;16.37;14.80;;;11.50;32.30;;;;;;20587;6822;278467;-69
2022/03/21 07:16:45;;;;;;;15.00;13.70;;;11.70;32.20;;;;;;20577;6822;282039;-75
2022/03/21 07:19:11;;;;;;;15.48;14.02;;;11.90;30.60;;;;;;20575;6822;336934;-66
2022/03/21 07:21:37;;;;;;;16.07;14.43;;;12.20;31.60;;;;;;20564;6822;278998;-69
2022/03/21 07:24:02;;;;;;;16.10;14.55;;;12.20;32.10;;;;;;20579;6822;307049;-69
2022/03/21 07:26:28;;;;;;;15.98;14.55;;;12.30;32.30;;;;;;20581;6822;307534;-69
2022/03/21 07:28:54;;;;;;;15.33;13.83;;;12.30;32.50;;;;;;20794;6822;117320;-69
2022/03/21 07:31:20;;;;;;;16.30;14.80;;;12.20;32.50;;;;;;20561;6822;277675;-70
2022/03/21 07:33:45;;;;;;;16.67;15.30;;;12.10;32.40;;;;;;20576;6822;311176;-70
2022/03/21 07:36:11;;;;;;;15.65;14.02;;;12.30;32.30;;;;;;20791;6822;118526;-75
2022/03/21 07:38:37;;;;;;;16.55;15.20;;;12.20;32.60;;;;;;20588;6820;279494;-70
2022/03/21 07:41:07;;;;;;;16.30;15.00;;;12.40;31.50;;;;;;20580;6821;276862;-69
2022/03/21 07:43:28;;;;;;;16.60;14.87;;;12.40;31.50;;;;;;20762;6821;127153;-70
2022/03/21 07:48:39;;;;;;;15.83;14.43;;;12.30;30.70;;;;;;20784;6822;117414;-70
2022/03/21 07:51:07;;;;;;;16.90;15.50;;;12.30;31.20;;;;;;20575;6822;307504;-70
2022/03/21 07:53:31;;;;;;;16.77;15.40;;;12.50;31.20;;;;;;20559;6822;286202;-70
2022/03/21 07:56:00;;;;;;;15.93;14.43;;;12.70;30.70;;;;;;20795;6822;119767;-70
2022/03/21 07:58:22;;;;;;;17.77;16.27;;;12.70;30.90;;;;;;20567;6822;337031;-71
2022/03/21 08:00:48;;;;;;;15.67;14.37;;;12.80;30.70;;;;;;20787;6822;118372;-71
2022/03/21 08:03:16;;;;;;;15.13;13.73;;;12.80;30.70;;;;;;20790;6822;117382;-71
2022/03/21 08:05:39;;;;;;;15.70;14.30;;;12.70;31.20;;;;;;20770;6822;117657;-71
2022/03/21 08:08:05;;;;;;;16.93;15.53;;;12.60;31.50;;;;;;20549;6822;278300;-71
2022/03/21 08:10:30;;;;;;;15.93;14.43;;;12.80;31.00;;;;;;20747;6822;117346;-71
2022/03/21 08:12:56;;;;;;;16.20;14.70;;;13.00;31.80;;;;;;20744;6822;124120;-71
2022/03/21 08:15:22;;;;;;;15.43;14.13;;;12.90;31.70;;;;;;20724;6822;118798;-71
2022/03/21 08:17:48;;;;;;;15.97;14.40;;;12.90;32.00;;;;;;20738;6822;117545;-71
2022/03/21 08:20:13;;;;;;;17.75;16.05;;;12.90;32.00;;;;;;20528;6822;342742;-71
2022/03/21 08:22:39;;;;;;;17.60;15.98;;;13.10;31.30;;;;;;20532;6822;302522;-71
2022/03/21 08:25:07;;;;;;;16.35;14.73;;;13.60;30.40;;;;;;20772;6822;117814;-71
2022/03/21 08:27:33;;;;;;;16.07;14.23;;;13.70;30.50;;;;;;20764;6822;117918;-71
2022/03/21 08:29:59;;;;;;;15.80;14.37;;;13.70;30.70;;;;;;20785;6822;118912;-70
2022/03/21 08:32:24;;;;;;;15.30;13.67;;;13.70;30.80;;;;;;20786;6822;117553;-70
2022/03/21 08:34:50;;;;;;;17.90;16.30;;;13.60;30.90;;;;;;20583;6822;336558;-70
2022/03/21 08:37:17;;;;;;;15.83;14.33;;;13.90;29.50;;;;;;20795;6822;117956;-71
2022/03/21 08:39:41;;;;;;;17.98;16.30;;;14.10;29.80;;;;;;20554;6822;336938;-71
2022/03/21 08:42:07;;;;;;;18.73;15.43;;;14.30;29.10;;;;;;20789;6822;118637;-71
2022/03/21 08:44:32;;;;;;;17.37;15.90;;;14.50;29.50;;;;;;20577;6822;312976;-71
2022/03/21 08:46:59;;;;;;;16.57;14.97;;;14.70;29.00;;;;;;20777;6822;117300;-71
2022/03/21 08:49:26;;;;;;;13.87;12.67;;;14.80;29.30;;;;;;20781;6820;118481;-71
2022/03/21 08:51:50;;;;;;;14.30;12.83;;;14.70;29.10;;;;;;20771;6821;117829;-71
2022/03/21 08:54:15;;;;;;;15.70;14.40;;;14.60;29.10;;;;;;20574;6821;307625;-71
2022/03/21 08:56:41;;;;;;;15.50;14.00;;;14.90;27.20;;;;;;20794;6821;117816;-71
2022/03/21 08:59:07;;;;;;;15.50;14.00;;;14.90;27.50;;;;;;20792;6821;117692;-71
2022/03/21 09:01:33;;;;;;;16.27;14.95;;;14.90;27.50;;;;;;20564;6822;278427;-71
2022/03/21 09:04:02;;;;;;;16.40;15.00;;;15.40;27.20;;;;;;20583;6822;306754;-70
2022/03/21 09:06:28;;;;;;;15.60;14.27;;;15.40;26.70;;;;;;20581;6822;329961;-70
2022/03/21 09:08:53;;;;;;;16.48;15.07;;;15.70;26.20;;;;;;20582;6822;298897;-71
2022/03/21 09:11:19;;;;;;;15.77;14.45;;;16.00;26.20;;;;;;20563;6822;277354;-72
2022/03/21 09:13:45;;;;;;;17.37;15.90;;;16.20;25.90;;;;;;20584;6822;308010;-71
2022/03/21 09:16:10;;;;;;;17.77;16.23;;;16.30;25.30;;;;;;20581;6822;345698;-71
2022/03/21 09:18:36;;;;;;;16.50;14.90;;;16.40;25.70;;;;;;20792;6822;117342;-71
2022/03/21 09:21:02;;;;;;;16.62;15.23;;;16.20;27.00;;;;;;20585;6822;306292;-71
2022/03/21 09:23:27;;;;;;;16.40;15.00;;;16.20;27.00;;;;;;20782;6822;117723;-71
2022/03/21 09:25:53;;;;;;;15.93;14.52;;;16.20;27.30;;;;;;20800;6822;117737;-71
2022/03/21 09:28:19;;;;;;;17.20;15.73;;;16.10;27.60;;;;;;20588;6822;280757;-71
2022/03/21 09:30:44;;;;;;;16.17;14.77;;;16.20;27.70;;;;;;20791;6822;118461;-71
2022/03/21 09:33:10;;;;;;;18.03;16.43;;;16.60;26.90;;;;;;20587;6822;277710;-71
2022/03/21 09:35:37;;;;;;;16.00;14.40;;;16.60;26.90;;;;;;20775;6822;117433;-71
2022/03/21 09:38:03;;;;;;;16.60;14.83;;;16.70;27.00;;;;;;20795;6822;118984;-71
2022/03/21 09:40:27;;;;;;;16.63;15.33;;;16.70;27.50;;;;;;20577;6822;306925;-71
2022/03/21 09:42:53;;;;;;;16.83;15.43;;;16.90;27.10;;;;;;20572;6822;310990;-71
2022/03/21 09:45:18;;;;;;;14.77;13.53;;;17.30;26.10;;;;;;20792;6822;117352;-71
2022/03/21 09:50:31;;;;;;;15.50;14.10;;;17.60;26.10;;;;;;20797;6822;117342;-71
2022/03/21 09:52:55;;;;;;;15.80;14.50;;;17.60;26.10;;;;;;20776;6822;117362;-71
2022/03/21 09:55:20;;;;;;;17.43;15.63;;;17.50;26.50;;;;;;20562;6822;277588;-71
2022/03/21 09:57:46;;;;;;;17.65;16.25;;;17.60;25.90;;;;;;20579;6822;311768;-71
2022/03/21 10:00:12;;;;;;;16.33;15.00;;;17.90;25.00;;;;;;20794;6822;117883;-71
2022/03/21 10:02:37;;;;;;;18.30;14.80;;;17.90;25.50;;;;;;20796;6820;117251;-71
2022/03/21 10:05:04;;;;;;;15.47;13.97;;;17.40;25.90;;;;;;20800;6821;117237;-71
2022/03/21 10:07:29;;;;;;;16.90;15.50;;;17.40;25.90;;;;;;20564;6821;307163;-71
2022/03/21 10:10:16;;;;;;;16.43;14.90;;;17.40;25.40;;;;;;20796;6821;124359;-71
2022/03/21 10:12:40;;;;;;;15.87;13.53;;;17.20;26.40;;;;;;20790;6822;123102;-70
2022/03/21 10:15:06;;;;;;;15.87;14.07;;;17.10;26.40;;;;;;20791;6822;121551;-71
2022/03/21 10:17:31;;;;;;;16.23;14.80;;;17.20;26.70;;;;;;20769;6822;121724;-71
2022/03/21 10:19:58;;;;;;;17.77;16.27;;;17.20;26.80;;;;;;20577;6822;312015;-70
2022/03/21 10:22:32;;;;;;;15.93;14.57;;;17.50;27.00;;;;;;20792;6822;117363;-71
2022/03/21 10:25:05;;;;;;;17.13;15.47;;;17.80;27.10;;;;;;20698;6822;117678;-70
2022/03/21 10:27:34;;;;;;;16.17;14.67;;;17.80;27.00;;;;;;20769;6822;119219;-71
2022/03/21 10:30:09;;;;;;;16.60;15.20;;;17.70;27.20;;;;;;20789;6822;117522;-70
2022/03/21 10:32:39;;;;;;;15.97;14.27;;;17.70;27.60;;;;;;20776;6822;117445;-70
2022/03/21 10:35:13;;;;;;;16.87;15.40;;;17.90;27.60;;;;;;20781;6822;121797;-70
2022/03/21 10:37:42;;;;;;;16.47;14.80;;;17.90;27.00;;;;;;20767;6822;118209;-70
2022/03/21 10:40:17;;;;;;;17.50;16.10;;;18.00;27.10;;;;;;20570;6822;307823;-71
2022/03/21 10:42:55;;;;;;;16.83;15.30;;;18.40;26.10;;;;;;20778;6822;117866;-71
2022/03/21 10:45:24;;;;;;;17.40;15.70;;;18.70;26.40;;;;;;20739;6822;118043;-71
2022/03/21 10:47:49;;;;;;;16.90;15.20;;;18.70;26.20;;;;;;20789;6822;118074;-70
2022/03/21 10:50:15;;;;;;;18.23;16.77;;;19.00;25.60;;;;;;20559;6822;336774;-71
2022/03/21 10:52:41;;;;;;;18.58;17.08;;;19.00;25.60;;;;;;20538;6822;334239;-71
2022/03/21 10:55:07;;;;;;;17.75;16.33;;;19.50;24.40;;;;;;20584;6822;330421;-71
2022/03/21 10:57:32;;;;;;;18.37;16.87;;;19.80;25.00;;;;;;20567;6822;277707;-71
2022/03/21 11:00:20;;;;;;;17.93;16.27;;;20.00;24.60;;;;;;20791;6822;122289;-70
2022/03/21 11:02:48;;;;;;;17.00;15.50;;;19.90;24.50;;;;;;20790;6822;123393;-71
2022/03/21 11:05:13;;;;;;;18.70;17.00;;;19.60;24.90;;;;;;20567;6822;341350;-71
2022/03/21 11:07:39;;;;;;;18.10;16.60;;;19.60;24.10;;;;;;20565;6822;307562;-71
2022/03/21 11:10:05;;;;;;;18.60;16.80;;;19.70;24.00;;;;;;20578;6822;307459;-70
2022/03/21 11:12:31;;;;;;;17.85;16.35;;;19.70;24.00;;;;;;20577;6820;341433;-70
2022/03/21 11:14:56;;;;;;;17.27;15.87;;;19.90;23.80;;;;;;20577;6821;307483;-70
2022/03/21 11:17:22;;;;;;;16.87;15.50;;;19.90;23.70;;;;;;20569;6821;277430;-71
2022/03/21 11:19:48;;;;;;;31.57;24.33;;;20.00;23.90;;;;;;20797;6821;117896;-71
2022/03/21 11:22:14;;;;;;;16.90;15.40;;;19.80;24.20;;;;;;20792;6821;117833;-71
2022/03/21 11:24:40;;;;;;;17.42;16.02;;;19.70;24.00;;;;;;20582;6822;306552;-71
2022/03/21 11:27:15;;;;;;;17.70;16.20;;;19.70;23.70;;;;;;20576;6822;306843;-71
2022/03/21 11:29:54;;;;;;;17.07;15.37;;;19.90;23.60;;;;;;20777;6822;122940;-70
2022/03/21 11:32:19;;;;;;;16.30;14.60;;;19.90;24.20;;;;;;20795;6822;117235;-71
2022/03/21 11:35:15;;;;;;;15.93;14.43;;;19.70;24.30;;;;;;20768;6822;117319;-71
2022/03/21 11:37:42;;;;;;;17.45;16.02;;;19.60;23.60;;;;;;20548;6822;311471;-70
2022/03/21 11:40:23;;;;;;;17.25;15.77;;;19.60;23.60;;;;;;20576;6822;310662;-71
2022/03/21 11:42:49;;;;;;;17.73;16.23;;;20.00;22.90;;;;;;20577;6822;341254;-71
2022/03/21 11:45:23;;;;;;;16.13;14.63;;;20.00;22.80;;;;;;20789;6822;117830;-71
2022/03/21 11:47:47;;;;;;;15.17;13.93;;;19.90;23.30;;;;;;20790;6822;118011;-70
2022/03/21 11:50:29;;;;;;;15.43;14.13;;;19.60;24.00;;;;;;20790;6822;121111;-71
2022/03/21 11:53:08;;;;;;;16.10;14.60;;;19.40;24.00;;;;;;20586;6822;306695;-74
2022/03/21 11:55:37;;;;;;;16.17;14.70;;;19.60;23.20;;;;;;20567;6822;280384;-71
2022/03/21 11:58:23;;;;;;;14.70;13.47;;;19.80;22.90;;;;;;20572;6822;306299;-72
2022/03/21 12:01:08;;;;;;;14.53;13.33;;;20.10;22.50;;;;;;20565;6822;294451;-68
2022/03/21 12:03:33;;;;;;;15.70;13.90;;;20.20;22.10;;;;;;20771;6822;118033;-71
2022/03/21 12:06:19;;;;;;;14.67;13.47;;;19.80;23.60;;;;;;20787;6822;117477;-72
2022/03/21 12:08:48;;;;;;;16.60;14.03;;;19.80;23.60;;;;;;20796;6822;117431;-68
2022/03/21 12:11:40;;;;;;;16.63;15.03;;;19.60;23.70;;;;;;20573;6822;307175;-69
2022/03/21 12:14:22;;;;;;;15.82;14.43;;;19.60;23.50;;;;;;20076;6822;304193;-69
2022/03/21 12:16:48;;;;;;;14.87;13.47;;;19.80;23.00;;;;;;20773;6822;117339;-73
2022/03/21 12:19:15;;;;;;;15.63;14.33;;;19.70;23.40;;;;;;20486;6822;278130;-71
2022/03/21 12:21:40;;;;;;;16.00;14.57;;;19.70;23.20;;;;;;20564;6822;311988;-74
2022/03/21 12:24:15;;;;;;;15.07;13.67;;;19.90;22.60;;;;;;20790;6820;118299;-69
2022/03/21 12:26:48;;;;;;;17.07;13.73;;;19.80;22.40;;;;;;20582;6821;278061;-68
2022/03/21 12:29:33;;;;;;;15.88;14.48;;;19.80;22.40;;;;;;20576;6821;305647;-68
2022/03/21 12:32:22;;;;;;;15.83;14.30;;;19.90;22.90;;;;;;20585;6821;307045;-67
2022/03/21 12:34:49;;;;;;;16.48;15.18;;;20.10;21.60;;;;;;20583;6821;307979;-71
2022/03/21 12:37:36;;;;;;;14.63;13.17;;;20.10;21.60;;;;;;20794;6822;124098;-78
2022/03/21 12:40:00;;;;;;;15.47;13.90;;;19.90;22.90;;;;;;20573;6822;316335;-70
2022/03/21 12:42:26;;;;;;;14.20;12.90;;;19.70;21.50;;;;;;20797;6822;118154;-70